Station Historical Data
Daily Summary for July 30, 2017 Units:  English    Metric   Both
« Previous Day
Next Day »
Daily Weekly Monthly Yearly Custom
  High: Low: Average:
Temperature: 84.5 °F 70.0 °F 75.4 °F
Dew Point: 65.4 °F 60.4 °F 63.4 °F
Humidity: 80% 47% 68%
Wind Speed: 9.2mph 0.0mph 8.7mph
Wind Gust: 9.2mph - -
Wind- - SSE
Pressure: 30.05 in 29.88 in -
Precipitation: 0.00 in    
Historical Graphs
 
 
Tabular Data for July 30, 2017
Time Temperature Dew Point Pressure Wind Wind Speed Wind Gust Humidity Rainfall Rate (Hourly) Conditions
00:04 72.4 °F 64.8 °F 29.88 in North 9.2 mph   77% 0.00 in CLR
00:09 72.2 °F 65.0 °F 29.88 in North 9.2 mph   78% 0.00 in CLR
00:14 72.0 °F 64.8 °F 29.88 in North 9.2 mph   78% 0.00 in CLR
00:19 71.9 °F 64.7 °F 29.88 in North 9.2 mph   78% 0.00 in CLR
00:24 71.7 °F 64.5 °F 29.88 in North 9.2 mph   78% 0.00 in CLR
00:29 71.6 °F 64.7 °F 29.88 in North 9.2 mph   79% 0.00 in CLR
00:34 71.5 °F 65.0 °F 29.88 in North 9.2 mph   80% 0.00 in CLR
00:39 71.2 °F 64.7 °F 29.88 in North 9.2 mph   80% 0.00 in CLR
00:45 71.0 °F 64.5 °F 29.88 in North 9.2 mph   80% 0.00 in CLR
00:50 70.0 °F 63.5 °F 29.88 in Calm     80% 0.00 in CLR
00:55 70.0 °F 63.5 °F 29.88 in Calm     80% 0.00 in CLR
01:00 70.0 °F 63.5 °F 29.88 in Calm     80% 0.00 in CLR
01:05 70.0 °F 63.5 °F 29.88 in North 9.2 mph   80% 0.00 in CLR
01:10 70.0 °F 63.5 °F 29.89 in North 9.2 mph   80% 0.00 in CLR
01:15 70.0 °F 63.5 °F 29.89 in North 9.2 mph   80% 0.00 in CLR
01:20 70.0 °F 63.5 °F 29.89 in North 9.2 mph   80% 0.00 in CLR
01:25 70.0 °F 63.5 °F 29.89 in North 9.2 mph   80% 0.00 in CLR
01:30 70.0 °F 63.5 °F 29.89 in North 9.2 mph   80% 0.00 in CLR
01:35 70.0 °F 63.5 °F 29.90 in North 9.2 mph   80% 0.00 in CLR
01:40 70.0 °F 63.5 °F 29.90 in North 9.2 mph   80% 0.00 in CLR
01:45 70.0 °F 63.5 °F 29.90 in North 9.2 mph   80% 0.00 in CLR
01:50 70.0 °F 63.5 °F 29.90 in North 9.2 mph   80% 0.00 in CLR
01:55 70.0 °F 63.5 °F 29.90 in North 9.2 mph   80% 0.00 in CLR
02:00 70.0 °F 63.5 °F 29.90 in North 9.2 mph   80% 0.00 in CLR
02:05 70.0 °F 63.5 °F 29.90 in North 9.2 mph   80% 0.00 in CLR
02:10 70.0 °F 63.5 °F 29.91 in North 9.2 mph   80% 0.00 in CLR
02:16 70.0 °F 63.5 °F 29.91 in North 9.2 mph   80% 0.00 in CLR
02:21 70.0 °F 63.5 °F 29.91 in North 9.2 mph   80% 0.00 in FEW
02:26 70.0 °F 63.5 °F 29.91 in North 9.2 mph   80% 0.00 in FEW
02:36 70.0 °F 63.5 °F 29.91 in North 9.2 mph   80% 0.00 in FEW
02:41 70.0 °F 63.5 °F 29.91 in North 9.2 mph   80% 0.00 in FEW
02:46 70.0 °F 63.5 °F 29.91 in North 9.2 mph   80% 0.00 in FEW
02:51 70.0 °F 63.5 °F 29.91 in North 9.2 mph   80% 0.00 in FEW
02:56 70.0 °F 63.5 °F 29.92 in North 9.2 mph   80% 0.00 in FEW
03:01 70.0 °F 63.5 °F 29.91 in North 9.2 mph   80% 0.00 in FEW
03:06 70.0 °F 63.5 °F 29.92 in North 9.2 mph   80% 0.00 in FEW
03:11 70.0 °F 63.5 °F 29.92 in North 9.2 mph   80% 0.00 in FEW
03:17 70.0 °F 63.5 °F 29.92 in North 9.2 mph   80% 0.00 in FEW
03:22 70.0 °F 63.5 °F 29.92 in North 9.2 mph   80% 0.00 in CLR
03:27 70.0 °F 63.5 °F 29.92 in North 9.2 mph   80% 0.00 in CLR
03:32 70.0 °F 63.5 °F 29.92 in North 9.2 mph   80% 0.00 in CLR
03:37 70.0 °F 63.5 °F 29.92 in North 9.2 mph   80% 0.00 in CLR
03:42 70.0 °F 63.5 °F 29.92 in North 9.2 mph   80% 0.00 in CLR
03:47 70.0 °F 63.5 °F 29.92 in North 9.2 mph   80% 0.00 in CLR
03:52 70.0 °F 63.5 °F 29.92 in North 9.2 mph   80% 0.00 in CLR
03:57 70.0 °F 63.5 °F 29.92 in North 9.2 mph   80% 0.00 in CLR
04:02 70.0 °F 63.5 °F 29.92 in North 9.2 mph   80% 0.00 in CLR
04:07 70.0 °F 63.5 °F 29.92 in North 9.2 mph   80% 0.00 in CLR
04:12 70.0 °F 63.5 °F 29.92 in North 9.2 mph   80% 0.00 in CLR
04:17 70.0 °F 63.5 °F 29.92 in North 9.2 mph   80% 0.00 in CLR
04:22 70.0 °F 63.5 °F 29.92 in North 9.2 mph   80% 0.00 in CLR
04:27 70.0 °F 63.5 °F 29.93 in North 9.2 mph   80% 0.00 in CLR
04:32 70.0 °F 63.5 °F 29.93 in North 9.2 mph   80% 0.00 in CLR
04:38 70.0 °F 63.5 °F 29.93 in North 9.2 mph   80% 0.00 in CLR
04:43 70.0 °F 63.5 °F 29.93 in North 9.2 mph   80% 0.00 in CLR
04:48 70.0 °F 63.5 °F 29.93 in North 9.2 mph   80% 0.00 in CLR
04:53 70.0 °F 63.5 °F 29.93 in North 9.2 mph   80% 0.00 in CLR
04:58 70.0 °F 63.5 °F 29.94 in North 9.2 mph   80% 0.00 in CLR
05:03 70.0 °F 63.5 °F 29.94 in North 9.2 mph   80% 0.00 in CLR
05:08 70.0 °F 63.5 °F 29.94 in North 9.2 mph   80% 0.00 in CLR
05:13 70.0 °F 63.5 °F 29.94 in North 9.2 mph   80% 0.00 in CLR
05:18 70.0 °F 63.5 °F 29.94 in North 9.2 mph   80% 0.00 in CLR
05:23 70.0 °F 63.5 °F 29.94 in North 9.2 mph   80% 0.00 in CLR
05:28 70.0 °F 63.5 °F 29.95 in North 9.2 mph   80% 0.00 in CLR
05:33 70.0 °F 63.5 °F 29.95 in North 9.2 mph   80% 0.00 in CLR
05:38 70.0 °F 63.5 °F 29.95 in North 9.2 mph   80% 0.00 in CLR
05:43 70.0 °F 63.5 °F 29.95 in North 9.2 mph   80% 0.00 in CLR
05:48 70.0 °F 63.5 °F 29.96 in North 9.2 mph   80% 0.00 in CLR
05:54 70.0 °F 63.5 °F 29.96 in North 9.2 mph   80% 0.00 in CLR
05:59 70.0 °F 63.5 °F 29.96 in North 9.2 mph   80% 0.00 in CLR
06:04 70.0 °F 63.5 °F 29.96 in North 9.2 mph   80% 0.00 in CLR
06:09 70.0 °F 63.5 °F 29.96 in North 9.2 mph   80% 0.00 in CLR
06:14 70.0 °F 63.5 °F 29.96 in North 9.2 mph   80% 0.00 in CLR
06:19 70.0 °F 63.5 °F 29.97 in North 9.2 mph   80% 0.00 in CLR
06:24 70.0 °F 63.5 °F 29.97 in North 9.2 mph   80% 0.00 in CLR
06:29 70.0 °F 63.5 °F 29.97 in North 9.2 mph   80% 0.00 in CLR
06:34 70.0 °F 63.5 °F 29.97 in North 9.2 mph   80% 0.00 in CLR
06:39 70.0 °F 63.5 °F 29.97 in North 9.2 mph   80% 0.00 in CLR
06:44 70.0 °F 63.5 °F 29.98 in North 9.2 mph   80% 0.00 in CLR
06:50 70.0 °F 63.5 °F 29.98 in Calm     80% 0.00 in CLR
06:55 70.0 °F 63.5 °F 29.98 in North 9.2 mph   80% 0.00 in CLR
07:00 70.0 °F 63.5 °F 29.98 in North 9.2 mph   80% 0.00 in CLR
07:05 70.0 °F 63.5 °F 29.98 in Calm     80% 0.00 in CLR
07:10 70.0 °F 63.5 °F 29.98 in North 9.2 mph   80% 0.00 in CLR
07:15 70.0 °F 63.5 °F 29.99 in Calm     80% 0.00 in CLR
07:20 70.0 °F 63.5 °F 29.99 in Calm     80% 0.00 in BKN
07:25 70.0 °F 63.5 °F 29.99 in North 9.2 mph   80% 0.00 in BKN
07:35 70.0 °F 63.5 °F 29.99 in North 9.2 mph   80% 0.00 in BKN
07:40 70.0 °F 63.5 °F 29.99 in North 9.2 mph   80% 0.00 in BKN
07:45 70.0 °F 63.5 °F 29.99 in North 9.2 mph   80% 0.00 in BKN
07:50 70.0 °F 63.5 °F 29.99 in North 9.2 mph   80% 0.00 in BKN
07:55 70.0 °F 63.5 °F 30.00 in North 9.2 mph   80% 0.00 in BKN
08:00 70.0 °F 63.5 °F 30.00 in North 9.2 mph   80% 0.00 in BKN
08:05 70.0 °F 63.5 °F 30.00 in North 9.2 mph   80% 0.00 in BKN
08:10 70.0 °F 63.5 °F 30.00 in North 9.2 mph   80% 0.00 in BKN
08:20 70.0 °F 63.5 °F 30.00 in North 9.2 mph   80% 0.00 in BKN
08:25 70.0 °F 63.5 °F 30.00 in North 9.2 mph   80% 0.00 in BKN
08:30 70.0 °F 63.5 °F 30.00 in North 9.2 mph   80% 0.00 in BKN
08:36 70.0 °F 63.5 °F 30.01 in North 9.2 mph   80% 0.00 in BKN
08:41 70.0 °F 63.5 °F 30.01 in North 9.2 mph   80% 0.00 in BKN
08:46 70.0 °F 63.5 °F 30.01 in North 9.2 mph   80% 0.00 in BKN
08:51 70.0 °F 63.5 °F 30.01 in North 9.2 mph   80% 0.00 in BKN
08:56 70.0 °F 63.5 °F 30.01 in North 9.2 mph   80% 0.00 in BKN
09:01 70.0 °F 63.5 °F 30.01 in North 9.2 mph   80% 0.00 in BKN
09:06 72.0 °F 62.9 °F 30.01 in NW 9.2 mph 9.2 mph 73% 0.00 in BKN
09:11 72.2 °F 62.3 °F 30.01 in WNW 9.2 mph 9.2 mph 71% 0.00 in BKN
09:16 72.4 °F 62.1 °F 30.01 in West 9.2 mph 9.2 mph 70% 0.00 in BKN
09:21 72.7 °F 61.9 °F 30.01 in West 9.2 mph 9.2 mph 69% 0.00 in FEW
09:26 72.9 °F 62.1 °F 30.01 in NW 9.2 mph 9.2 mph 69% 0.00 in FEW
09:31 73.1 °F 62.3 °F 30.01 in NNW 9.2 mph 9.2 mph 69% 0.00 in FEW
09:36 73.4 °F 62.2 °F 30.01 in NW 9.2 mph 9.2 mph 68% 0.00 in FEW
09:41 73.5 °F 61.9 °F 30.01 in West 9.2 mph 9.2 mph 67% 0.00 in FEW
09:47 73.5 °F 61.4 °F 30.01 in WNW 9.2 mph 9.2 mph 66% 0.00 in FEW
09:52 73.9 °F 61.8 °F 30.01 in WNW 9.2 mph 9.2 mph 66% 0.00 in FEW
09:57 73.9 °F 62.2 °F 30.01 in SSE 9.2 mph   67% 0.00 in FEW
10:02 73.9 °F 61.4 °F 30.01 in WNW 9.2 mph 9.2 mph 65% 0.00 in FEW
10:07 74.2 °F 62.5 °F 30.01 in NW 9.2 mph 9.2 mph 67% 0.00 in FEW
10:12 74.5 °F 61.5 °F 30.01 in West 9.2 mph 9.2 mph 64% 0.00 in FEW
10:17 74.6 °F 62.1 °F 30.01 in SSE 9.2 mph 9.2 mph 65% 0.00 in FEW
10:22 75.1 °F 63.0 °F 30.01 in WNW 9.2 mph 9.2 mph 66% 0.00 in FEW
10:27 75.5 °F 62.5 °F 30.02 in WNW 9.2 mph 9.2 mph 64% 0.00 in FEW
10:32 75.7 °F 61.8 °F 30.02 in WNW 9.2 mph 9.2 mph 62% 0.00 in FEW
10:37 75.8 °F 62.3 °F 30.02 in NW 9.2 mph 9.2 mph 63% 0.00 in FEW
10:42 76.2 °F 61.8 °F 30.02 in WNW 9.2 mph 9.2 mph 61% 0.00 in FEW
10:47 76.1 °F 61.2 °F 30.02 in NNW 9.2 mph 9.2 mph 60% 0.00 in FEW
10:52 76.4 °F 62.4 °F 30.02 in WNW 9.2 mph 9.2 mph 62% 0.00 in FEW
10:57 76.6 °F 61.2 °F 30.02 in West 9.2 mph 9.2 mph 59% 0.00 in FEW
11:02 76.8 °F 63.2 °F 30.02 in West 9.2 mph 9.2 mph 63% 0.00 in FEW
11:07 76.9 °F 61.5 °F 30.02 in NNW 9.2 mph 9.2 mph 59% 0.00 in FEW
11:12 77.2 °F 63.2 °F 30.02 in WNW 9.2 mph 9.2 mph 62% 0.00 in FEW
11:17 77.2 °F 62.2 °F 30.02 in WNW 9.2 mph 9.2 mph 60% 0.00 in FEW
11:23 77.4 °F 61.9 °F 30.03 in West 9.2 mph 9.2 mph 59% 0.00 in FEW
11:28 77.3 °F 60.9 °F 30.03 in WSW 9.2 mph 9.2 mph 57% 0.00 in FEW
11:33 77.3 °F 62.8 °F 30.03 in NW 9.2 mph 9.2 mph 61% 0.00 in FEW
11:38 77.6 °F 61.2 °F 30.03 in West 9.2 mph 9.2 mph 57% 0.00 in FEW
11:43 77.6 °F 61.7 °F 30.03 in West 9.2 mph 9.2 mph 58% 0.00 in FEW
11:48 77.5 °F 61.6 °F 30.03 in West 9.2 mph 9.2 mph 58% 0.00 in FEW
11:53 77.7 °F 61.7 °F 30.03 in WNW 9.2 mph   58% 0.00 in FEW
11:58 78.0 °F 62.0 °F 30.03 in West 9.2 mph 9.2 mph 58% 0.00 in FEW
12:03 78.2 °F 62.2 °F 30.03 in NW 9.2 mph 9.2 mph 58% 0.00 in FEW
12:08 78.3 °F 61.3 °F 30.03 in NW 9.2 mph 9.2 mph 56% 0.00 in FEW
12:13 78.5 °F 61.5 °F 30.03 in NW 9.2 mph 9.2 mph 56% 0.00 in FEW
12:18 78.4 °F 60.4 °F 30.03 in NNW 9.2 mph 9.2 mph 54% 0.00 in FEW
12:20 78.4 °F 61.4 °F 30.03 in WNW 9.2 mph 9.2 mph 56% 0.00 in FEW
12:25 78.6 °F 61.1 °F 30.03 in NW 9.2 mph 9.2 mph 55% 0.00 in FEW
12:30 79.1 °F 63.1 °F 30.03 in WNW 9.2 mph   58% 0.00 in FEW
12:35 79.2 °F 60.6 °F 30.03 in WNW 9.2 mph 9.2 mph 53% 0.00 in FEW
12:40 79.3 °F 61.7 °F 30.03 in NW 9.2 mph   55% 0.00 in FEW
12:45 79.9 °F 62.8 °F 30.02 in West 9.2 mph   56% 0.00 in FEW
12:50 80.3 °F 62.1 °F 30.02 in WNW 9.2 mph 9.2 mph 54% 0.00 in FEW
12:55 80.6 °F 61.3 °F 30.03 in WNW 9.2 mph 9.2 mph 52% 0.00 in FEW
13:00 80.9 °F 62.2 °F 30.03 in WNW 9.2 mph 9.2 mph 53% 0.00 in FEW
13:05 81.0 °F 61.2 °F 30.02 in NW 9.2 mph 9.2 mph 51% 0.00 in FEW
13:10 81.7 °F 62.9 °F 30.02 in ENE 9.2 mph 9.2 mph 53% 0.00 in FEW
13:15 82.2 °F 63.4 °F 30.02 in ESE 9.2 mph   53% 0.00 in FEW
13:20 82.8 °F 62.8 °F 30.02 in NW 9.2 mph 9.2 mph 51% 0.00 in FEW
13:26 83.0 °F 62.4 °F 30.02 in NW 9.2 mph 9.2 mph 50% 0.00 in FEW
13:31 83.7 °F 63.7 °F 30.02 in WSW 9.2 mph 9.2 mph 51% 0.00 in FEW
13:36 84.2 °F 63.0 °F 30.01 in SSW 9.2 mph 9.2 mph 49% 0.00 in FEW
13:41 84.3 °F 63.1 °F 30.01 in NW 9.2 mph   49% 0.00 in FEW
13:46 84.4 °F 63.7 °F 30.01 in NW 9.2 mph 9.2 mph 50% 0.00 in FEW
13:51 84.4 °F 63.7 °F 30.01 in SSW 9.2 mph 9.2 mph 50% 0.00 in FEW
13:56 84.4 °F 63.7 °F 30.01 in WNW 9.2 mph 9.2 mph 50% 0.00 in FEW
14:01 84.4 °F 62.0 °F 30.01 in WNW 9.2 mph 9.2 mph 47% 0.00 in FEW
14:06 84.4 °F 62.6 °F 30.01 in WNW 9.2 mph   48% 0.00 in FEW
14:11 84.5 °F 63.8 °F 30.01 in West 9.2 mph 9.2 mph 50% 0.00 in FEW
14:16 84.5 °F 63.2 °F 30.01 in East 9.2 mph 9.2 mph 49% 0.00 in FEW
14:21 84.0 °F 62.2 °F 30.01 in NW 9.2 mph   48% 0.00 in FEW
14:26 84.0 °F 63.9 °F 30.01 in NW 9.2 mph   51% 0.00 in FEW
14:31 83.7 °F 61.9 °F 30.01 in NW 9.2 mph 9.2 mph 48% 0.00 in FEW
14:36 83.2 °F 63.2 °F 30.00 in NW 9.2 mph   51% 0.00 in FEW
14:41 83.1 °F 62.0 °F 30.00 in NW 9.2 mph 9.2 mph 49% 0.00 in FEW
14:46 83.2 °F 63.7 °F 30.00 in South 9.2 mph 9.2 mph 52% 0.00 in FEW
14:51 83.3 °F 63.3 °F 30.00 in West 9.2 mph 9.2 mph 51% 0.00 in FEW
14:56 83.1 °F 63.1 °F 30.00 in NW 9.2 mph   51% 0.00 in FEW
15:01 82.8 °F 62.8 °F 30.00 in WNW 9.2 mph   51% 0.00 in FEW
15:06 82.8 °F 61.7 °F 30.00 in West 9.2 mph   49% 0.00 in FEW
15:11 82.5 °F 63.1 °F 30.00 in SW 9.2 mph   52% 0.00 in FEW
15:16 82.2 °F 61.1 °F 30.00 in East 9.2 mph 9.2 mph 49% 0.00 in FEW
15:22 82.5 °F 62.0 °F 30.00 in NW 9.2 mph   50% 0.00 in SCT
15:27 82.5 °F 60.8 °F 30.00 in SW 9.2 mph   48% 0.00 in SCT
15:32 82.1 °F 61.6 °F 30.00 in NW 9.2 mph 9.2 mph 50% 0.00 in SCT
15:37 82.1 °F 61.6 °F 30.00 in WNW 9.2 mph   50% 0.00 in SCT
15:42 82.5 °F 63.6 °F 30.00 in NNE 9.2 mph 9.2 mph 53% 0.00 in SCT
15:47 82.6 °F 64.3 °F 30.00 in ESE 9.2 mph 9.2 mph 54% 0.00 in SCT
15:52 82.8 °F 62.3 °F 30.00 in NW 9.2 mph 9.2 mph 50% 0.00 in SCT
15:57 82.6 °F 61.5 °F 30.00 in NE 9.2 mph   49% 0.00 in SCT
16:02 82.5 °F 62.5 °F 29.99 in North 9.2 mph   51% 0.00 in SCT
16:07 82.6 °F 63.2 °F 29.99 in NW 9.2 mph   52% 0.00 in SCT
16:12 82.7 °F 62.7 °F 29.99 in WNW 9.2 mph 9.2 mph 51% 0.00 in SCT
16:17 82.7 °F 63.8 °F 30.00 in WNW 9.2 mph   53% 0.00 in SCT
16:22 82.2 °F 62.8 °F 30.00 in WNW 9.2 mph   52% 0.00 in SCT
16:27 82.1 °F 63.8 °F 29.99 in North 9.2 mph   54% 0.00 in SCT
16:32 82.3 °F 64.0 °F 29.99 in NW 9.2 mph 9.2 mph 54% 0.00 in SCT
16:37 82.5 °F 62.5 °F 29.99 in NNW 9.2 mph   51% 0.00 in SCT
16:42 82.3 °F 62.4 °F 29.99 in NW 9.2 mph   51% 0.00 in SCT
16:47 82.2 °F 63.4 °F 29.99 in NNE 9.2 mph   53% 0.00 in SCT
16:53 82.4 °F 60.7 °F 29.99 in ENE 9.2 mph   48% 0.00 in SCT
16:58 82.6 °F 61.5 °F 29.99 in ENE 9.2 mph 9.2 mph 49% 0.00 in SCT
17:03 82.8 °F 62.8 °F 29.99 in WNW 9.2 mph 9.2 mph 51% 0.00 in SCT
17:08 82.8 °F 62.3 °F 29.99 in NE 9.2 mph 9.2 mph 50% 0.00 in SCT
17:13 82.8 °F 61.7 °F 29.99 in NE 9.2 mph   49% 0.00 in SCT
17:18 83.3 °F 64.4 °F 29.99 in NE 9.2 mph   53% 0.00 in SCT
17:23 83.7 °F 63.7 °F 29.99 in NNW 9.2 mph   51% 0.00 in SCT
17:28 83.5 °F 64.6 °F 29.99 in NNW 9.2 mph   53% 0.00 in SCT
17:33 83.2 °F 63.2 °F 29.99 in NNW 9.2 mph   51% 0.00 in SCT
17:38 82.8 °F 62.8 °F 29.99 in NNW 9.2 mph   51% 0.00 in SCT
17:43 82.7 °F 63.3 °F 29.99 in NNW 9.2 mph   52% 0.00 in SCT
17:48 82.4 °F 64.6 °F 29.99 in NE 9.2 mph   55% 0.00 in SCT
17:53 82.3 °F 64.0 °F 29.99 in NNE 9.2 mph   54% 0.00 in SCT
17:58 82.2 °F 64.4 °F 29.99 in NNE 9.2 mph   55% 0.00 in SCT
18:03 81.9 °F 64.1 °F 29.99 in NNE 9.2 mph   55% 0.00 in SCT
18:09 81.7 °F 62.4 °F 29.98 in NNE 9.2 mph   52% 0.00 in SCT
18:11 81.8 °F 63.5 °F 29.99 in NNE 9.2 mph   54% 0.00 in SCT
18:16 81.9 °F 63.6 °F 29.99 in NNE 9.2 mph   54% 0.00 in SCT
18:21 81.7 °F 62.9 °F 29.99 in NNE 9.2 mph   53% 0.00 in FEW
18:26 81.5 °F 64.3 °F 29.99 in NNE 9.2 mph   56% 0.00 in FEW
18:31 81.4 °F 63.7 °F 29.98 in NW 9.2 mph   55% 0.00 in FEW
18:37 81.3 °F 64.6 °F 29.98 in NW 9.2 mph   57% 0.00 in FEW
18:42 81.1 °F 63.4 °F 29.99 in NW 9.2 mph   55% 0.00 in FEW
18:47 81.1 °F 62.9 °F 29.99 in NW 9.2 mph   54% 0.00 in FEW
18:52 81.2 °F 64.0 °F 29.99 in NW 9.2 mph   56% 0.00 in FEW
18:57 81.0 °F 63.8 °F 29.99 in NW 9.2 mph   56% 0.00 in FEW
19:02 80.8 °F 64.6 °F 29.99 in NW 9.2 mph   58% 0.00 in FEW
19:07 80.6 °F 64.5 °F 29.99 in NW 9.2 mph   58% 0.00 in FEW
19:12 80.4 °F 64.8 °F 29.99 in WNW 9.2 mph   59% 0.00 in FEW
19:17 80.1 °F 65.4 °F 30.00 in WNW 9.2 mph   61% 0.00 in FEW
19:22 79.6 °F 65.4 °F 30.00 in WNW 9.2 mph   62% 0.00 in FEW
19:27 79.4 °F 65.2 °F 30.00 in WNW 9.2 mph   62% 0.00 in FEW
19:32 79.2 °F 65.1 °F 30.00 in WNW 9.2 mph   62% 0.00 in FEW
19:37 79.1 °F 65.0 °F 30.00 in WNW 9.2 mph   62% 0.00 in FEW
19:42 79.0 °F 64.9 °F 30.00 in WNW 9.2 mph   62% 0.00 in FEW
19:47 78.7 °F 65.0 °F 30.00 in WNW 9.2 mph   63% 0.00 in FEW
19:52 78.5 °F 64.9 °F 30.00 in WNW 9.2 mph   63% 0.00 in FEW
19:57 78.3 °F 64.7 °F 30.00 in WNW 9.2 mph   63% 0.00 in FEW
20:02 78.1 °F 64.9 °F 30.00 in WNW 9.2 mph   64% 0.00 in FEW
20:07 77.9 °F 65.2 °F 30.01 in WNW 9.2 mph   65% 0.00 in FEW
20:13 77.8 °F 64.6 °F 30.01 in WNW 9.2 mph   64% 0.00 in FEW
20:18 77.7 °F 65.0 °F 30.01 in WNW 9.2 mph   65% 0.00 in FEW
20:23 77.4 °F 64.7 °F 30.01 in WNW 9.2 mph   65% 0.00 in FEW
20:28 77.2 °F 65.0 °F 30.01 in WNW 9.2 mph   66% 0.00 in FEW
20:33 77.1 °F 64.9 °F 30.01 in WNW 9.2 mph   66% 0.00 in FEW
20:38 76.8 °F 65.0 °F 30.01 in WNW 9.2 mph   67% 0.00 in FEW
20:43 76.6 °F 64.8 °F 30.01 in WNW 9.2 mph   67% 0.00 in FEW
20:48 76.4 °F 65.1 °F 30.01 in WNW 9.2 mph   68% 0.00 in FEW
20:53 76.2 °F 65.3 °F 30.01 in WNW 9.2 mph   69% 0.00 in FEW
20:58 75.9 °F 64.6 °F 30.01 in WNW 9.2 mph   68% 0.00 in FEW
21:03 75.7 °F 64.8 °F 30.01 in WNW 9.2 mph   69% 0.00 in FEW
21:08 75.5 °F 65.0 °F 30.01 in WNW 9.2 mph   70% 0.00 in FEW
21:13 75.2 °F 64.7 °F 30.02 in WNW 9.2 mph   70% 0.00 in FEW
21:18 75.0 °F 65.4 °F 30.01 in WNW 9.2 mph   72% 0.00 in FEW
21:23 74.8 °F 64.8 °F 30.02 in WNW 9.2 mph   71% 0.00 in FEW
21:28 74.6 °F 65.0 °F 30.02 in WNW 9.2 mph   72% 0.00 in FEW
21:34 74.4 °F 65.2 °F 30.02 in WNW 9.2 mph   73% 0.00 in FEW
21:39 74.2 °F 64.6 °F 30.02 in WNW 9.2 mph   72% 0.00 in FEW
21:44 74.0 °F 64.8 °F 30.02 in WNW 9.2 mph   73% 0.00 in FEW
21:49 73.7 °F 64.5 °F 30.03 in WNW 9.2 mph   73% 0.00 in FEW
21:54 73.5 °F 65.1 °F 30.03 in WNW 9.2 mph   75% 0.00 in FEW
21:59 73.3 °F 64.5 °F 30.03 in WNW 9.2 mph   74% 0.00 in FEW
22:04 73.2 °F 64.8 °F 30.03 in WNW 9.2 mph   75% 0.00 in FEW
22:09 73.1 °F 64.7 °F 30.03 in WNW 9.2 mph   75% 0.00 in FEW
22:14 73.0 °F 65.0 °F 30.04 in WNW 9.2 mph   76% 0.00 in FEW
22:19 72.8 °F 64.4 °F 30.04 in WNW 9.2 mph   75% 0.00 in FEW
22:24 72.7 °F 64.7 °F 30.04 in WNW 9.2 mph   76% 0.00 in SCT
22:29 72.6 °F 64.2 °F 30.04 in WNW 9.2 mph   75% 0.00 in SCT
22:34 72.6 °F 64.6 °F 30.04 in WNW 9.2 mph   76% 0.00 in SCT
22:39 72.5 °F 64.5 °F 30.04 in WNW 9.2 mph   76% 0.00 in SCT
22:44 72.5 °F 64.9 °F 30.04 in WNW 9.2 mph   77% 0.00 in SCT
22:50 72.4 °F 65.2 °F 30.04 in WNW 9.2 mph   78% 0.00 in SCT
22:55 72.3 °F 65.1 °F 30.04 in Calm     78% 0.00 in SCT
23:00 72.2 °F 65.0 °F 30.04 in Calm     78% 0.00 in SCT
23:05 72.2 °F 65.0 °F 30.04 in Calm     78% 0.00 in SCT
23:10 72.2 °F 64.9 °F 30.04 in Calm     78% 0.00 in SCT
23:15 72.2 °F 65.3 °F 30.04 in Calm     79% 0.00 in SCT
23:20 72.2 °F 65.3 °F 30.04 in WNW 9.2 mph   79% 0.00 in SCT
23:25 72.2 °F 65.3 °F 30.04 in Calm     79% 0.00 in SCT
23:30 72.2 °F 65.0 °F 30.04 in Calm     78% 0.00 in SCT
23:35 72.1 °F 64.9 °F 30.04 in WNW 9.2 mph   78% 0.00 in SCT
23:40 72.0 °F 64.8 °F 30.04 in WNW 9.2 mph   78% 0.00 in SCT
23:41 71.9 °F 64.7 °F 30.04 in WNW 9.2 mph   78% 0.00 in SCT
23:46 71.8 °F 64.6 °F 30.04 in WNW 9.2 mph   78% 0.00 in SCT
23:51 71.7 °F 64.5 °F 30.04 in WNW 9.2 mph   78% 0.00 in SCT
23:56 71.6 °F 64.4 °F 30.05 in WNW 9.2 mph   78% 0.00 in SCT
Piedmont Bend
Compliments of Weather Underground - 2 mb